Time;durP1;ratioP1;P1;durP2;ratioP2;P2;SDS_P1;SDS_P2;PMS_P1;PMS_P2;Temp;Humidity;BMP_temperature;BMP_pressure;BME280_temperature;BME280_humidity;BME280_pressure;Samples;Min_cycle;Max_cycle;Signal;HPM_P1;HPM_P2
2024/01/29 00:01:35;;;;;;;1.85;1.35;;;8.50;70.90;;;-144.05;31.77;56959.28;5099484;28;20030;-75
2024/01/29 00:04:01;;;;;;;2.65;1.63;;;7.50;70.70;;;-144.05;31.68;56935.91;5093899;28;20115;-77
2024/01/29 00:06:27;;;;;;;2.35;1.33;;;;;;;-144.05;31.81;56944.41;5094683;28;20069;-77
2024/01/29 00:08:53;;;;;;;2.17;1.48;;;8.70;71.70;;;-144.05;31.65;56935.91;5097759;28;20152;-75
2024/01/29 00:11:20;;;;;;;2.80;1.75;;;8.60;70.10;;;-144.05;31.60;56925.28;5097592;28;20069;-77
2024/01/29 00:13:46;;;;;;;2.13;1.17;;;8.00;68.60;;;-144.05;31.62;56931.66;5097607;28;20024;-77
2024/01/29 00:16:15;;;;;;;3.47;1.33;;;7.70;71.20;;;-144.05;31.90;56935.91;5115392;28;20038;-77
2024/01/29 00:18:40;;;;;;;2.38;1.40;;;14.40;74.40;;;-144.05;31.88;56955.03;5105930;28;20074;-76
2024/01/29 00:21:06;;;;;;;3.92;1.30;;;8.00;70.90;;;-144.05;31.91;56967.78;5102775;28;20135;-77
2024/01/29 00:23:32;;;;;;;3.17;1.30;;;14.70;75.20;;;-144.05;31.71;56965.66;5097492;28;20023;-77
2024/01/29 00:25:58;;;;;;;1.58;1.20;;;;;;;-144.05;32.14;56963.53;5103564;28;20024;-78
2024/01/29 00:28:24;;;;;;;3.45;1.60;;;14.30;75.00;;;-144.05;31.81;56969.91;5101262;28;20032;-77
2024/01/29 00:30:50;;;;;;;1.92;1.38;;;8.30;72.10;;;-144.05;32.17;56950.78;5096985;28;20016;-79
2024/01/29 00:33:16;;;;;;;2.25;1.40;;;14.00;75.70;;;-144.05;32.04;56963.53;5096423;28;20035;-78
2024/01/29 00:35:42;;;;;;;1.90;1.33;;;;;;;-144.05;32.07;56965.66;5096674;28;20020;-77
2024/01/29 00:38:08;;;;;;;3.25;1.60;;;7.30;72.20;;;-144.05;32.45;56946.53;5120702;28;20028;-78
2024/01/29 00:40:34;;;;;;;1.73;1.30;;;8.60;72.80;;;-144.05;32.34;56980.53;5124170;28;20145;-77
2024/01/29 00:43:00;;;;;;;3.22;1.80;;;10.80;72.10;;;-144.05;32.61;56959.28;5112999;28;20020;-78
2024/01/29 00:45:27;;;;;;;1.40;1.13;;;;;;;-144.05;32.41;56967.78;5109682;28;20028;-78
2024/01/29 00:47:53;;;;;;;1.83;1.30;;;14.10;76.70;;;-144.05;32.61;56959.28;5107506;28;20076;-78
2024/01/29 00:50:19;;;;;;;2.13;1.30;;;7.70;73.30;;;-144.05;32.72;56929.53;5094628;28;20116;-76
2024/01/29 00:52:45;;;;;;;1.83;0.93;;;14.00;77.40;;;-144.05;32.92;56942.28;5095117;28;20477;-75
2024/01/29 00:55:12;;;;;;;2.22;1.25;;;7.50;73.30;;;-144.05;32.67;56933.78;5096645;28;20039;-78
2024/01/29 00:57:38;;;;;;;3.55;1.48;;;14.70;77.80;;;-144.05;33.22;56950.78;5095373;28;20107;-76
2024/01/29 01:00:12;;;;;;;2.83;1.70;;;7.40;74.00;;;-144.05;33.38;56942.28;5096215;28;20020;-78
2024/01/29 01:02:38;;;;;;;2.72;1.40;;;;;;;-144.05;33.02;56965.66;5097091;28;20024;-77
2024/01/29 01:05:06;;;;;;;2.83;1.50;;;7.30;74.40;;;-144.05;33.32;56933.78;5096278;28;20027;-78
2024/01/29 01:07:32;;;;;;;2.17;1.23;;;14.30;78.70;;;-144.05;33.59;56944.41;5095854;28;20024;-75
2024/01/29 01:09:58;;;;;;;2.53;1.30;;;7.50;75.10;;;-144.05;33.48;56957.16;5094964;28;20023;-76
2024/01/29 01:12:24;;;;;;;3.10;1.73;;;14.50;78.60;;;-144.05;33.72;56952.91;5096271;28;20058;-77
2024/01/29 01:14:49;;;;;;;2.10;1.35;;;14.20;79.50;;;-144.05;33.81;56961.41;5093784;28;20120;-76
2024/01/29 01:17:15;;;;;;;1.90;1.20;;;8.50;75.60;;;-144.05;33.47;56952.91;5099885;28;20024;-77
2024/01/29 01:19:41;;;;;;;3.03;1.48;;;7.50;75.60;;;-144.05;33.65;56946.53;5095549;28;20133;-76
2024/01/29 01:22:07;;;;;;;2.45;1.50;;;;;;;-144.05;33.43;56944.41;5095374;28;20050;-76
2024/01/29 01:24:33;;;;;;;2.25;1.40;;;7.20;73.60;;;-144.05;33.62;56938.03;5094311;28;20110;-77
2024/01/29 01:26:59;;;;;;;3.40;1.30;;;;;;;-144.05;33.89;56935.91;5112574;27;20058;-77
2024/01/29 01:29:25;;;;;;;3.45;1.58;;;7.50;75.20;;;-144.05;33.71;56959.28;5095161;28;20020;-78
2024/01/29 01:31:51;;;;;;;2.38;1.60;;;8.40;76.00;;;-144.05;33.77;56935.91;5093178;28;20020;-76
2024/01/29 01:34:18;;;;;;;2.33;1.50;;;9.20;74.40;;;-144.05;33.69;56931.66;5095268;28;20055;-76
2024/01/29 01:36:43;;;;;;;2.03;1.60;;;8.70;77.20;;;-144.05;34.12;56942.28;5100501;28;20066;-77
2024/01/29 01:39:10;;;;;;;3.20;1.40;;;6.80;76.30;;;-144.05;34.25;56929.53;5112799;28;20016;-78
2024/01/29 01:41:36;;;;;;;1.75;1.40;;;8.70;78.10;;;-144.05;34.30;56976.28;5109453;28;20469;-76
2024/01/29 01:44:02;;;;;;;3.28;1.27;;;8.10;75.80;;;-144.05;33.90;56925.28;5120311;28;20157;-77
2024/01/29 01:46:28;;;;;;;2.83;1.60;;;;;;;-144.05;34.10;56944.41;5095724;28;20082;-76
2024/01/29 01:48:56;;;;;;;2.30;1.10;;;14.00;81.30;;;-144.05;34.12;56946.53;5093313;28;20509;-77
2024/01/29 01:51:23;;;;;;;2.45;1.10;;;7.10;77.40;;;-144.05;34.17;56916.81;5106190;28;20028;-75
2024/01/29 01:53:54;;;;;;;1.80;1.30;;;7.40;77.40;;;-144.05;34.55;56929.53;5098960;28;20020;-76
2024/01/29 01:56:21;;;;;;;2.38;1.50;;;7.70;77.50;;;-144.05;34.41;56912.56;5096638;28;20024;-78
2024/01/29 01:58:48;;;;;;;5.18;1.42;;;;;;;-144.05;34.57;56946.53;5094256;28;20050;-75
2024/01/29 02:01:14;;;;;;;1.63;1.30;;;7.30;77.80;;;-144.05;34.47;56955.03;5094271;28;20020;-78
2024/01/29 02:03:42;;;;;;;2.05;1.17;;;;;;;-144.05;34.39;56955.03;5105936;28;20016;-77
2024/01/29 02:06:11;;;;;;;2.08;1.35;;;7.60;78.10;;;-144.05;34.46;56933.78;5094967;28;20020;-78
2024/01/29 02:08:39;;;;;;;2.67;1.30;;;;;;;-144.05;34.55;56935.91;5094782;28;20032;-78
2024/01/29 02:11:05;;;;;;;2.08;1.25;;;;;;;-144.05;35.09;56918.94;5093606;28;20012;-76
2024/01/29 02:13:31;;;;;;;4.43;1.65;;;7.00;79.20;;;-144.05;34.95;56961.41;5093479;28;20112;-76
2024/01/29 02:15:58;;;;;;;1.77;1.20;;;;;;;-144.05;35.40;56948.66;5091503;28;20039;-75
2024/01/29 02:18:24;;;;;;;1.88;1.35;;;;;;;-144.05;35.21;56978.41;5092011;28;20043;-76
2024/01/29 02:20:50;;;;;;;2.03;1.38;;;7.30;79.50;;;-144.05;35.17;56921.06;5093470;28;20028;-76
2024/01/29 02:23:16;;;;;;;2.20;1.42;;;7.10;79.70;;;-144.05;35.10;56967.78;5095878;28;20080;-76
2024/01/29 02:25:42;;;;;;;2.45;1.65;;;7.30;80.10;;;-144.05;35.07;56946.53;5096012;28;20028;-75
2024/01/29 02:28:08;;;;;;;2.40;1.40;;;;;;;-144.05;35.55;56942.28;5092268;28;20044;-75
2024/01/29 02:30:34;;;;;;;2.00;1.33;;;;;;;-144.05;35.81;56927.41;5094218;28;20032;-78
2024/01/29 02:33:00;;;;;;;4.43;1.33;;;7.20;80.30;;;-144.05;35.19;56938.03;5094893;28;20024;-77
2024/01/29 02:35:26;;;;;;;2.45;1.42;;;;;;;-144.05;35.37;56935.91;5099855;28;20451;-77
2024/01/29 02:37:52;;;;;;;2.67;1.30;;;;;;;-144.05;35.34;56974.16;5096034;28;20061;-76
2024/01/29 02:40:18;;;;;;;2.45;1.42;;;7.20;80.10;;;-144.05;35.52;56927.41;5096157;28;20045;-77
2024/01/29 02:42:44;;;;;;;3.25;1.58;;;7.30;80.00;;;-144.05;35.95;56931.66;5105306;28;20024;-77
2024/01/29 02:45:10;;;;;;;2.15;1.50;;;7.70;81.20;;;-144.05;35.45;56950.78;5107265;28;20020;-76
2024/01/29 02:47:36;;;;;;;2.17;1.40;;;;;;;-144.05;35.61;56940.16;5105561;28;20319;-77
2024/01/29 02:50:02;;;;;;;3.63;1.83;;;7.40;80.30;;;-144.05;35.67;56931.66;5095373;28;20027;-77
2024/01/29 02:52:29;;;;;;;4.40;1.60;;;;;;;-144.05;36.38;56948.66;5100239;28;20461;-76
2024/01/29 02:54:54;;;;;;;1.52;1.20;;;7.20;81.10;;;-144.05;35.99;56959.28;5103747;28;20031;-76
2024/01/29 02:57:24;;;;;;;4.55;1.77;;;7.20;81.50;;;-144.05;36.20;56961.41;5095370;28;20381;-76
2024/01/29 02:59:54;;;;;;;2.83;1.50;;;7.60;82.30;;;-144.05;36.56;56946.53;5094241;28;20085;-77
2024/01/29 03:02:20;;;;;;;4.28;1.65;;;10.70;83.70;;;-144.05;36.34;56940.16;5097834;28;20341;-78
2024/01/29 03:04:46;;;;;;;1.67;1.35;;;7.30;81.60;;;-144.05;36.74;56938.03;5093975;28;20032;-76
2024/01/29 03:07:12;;;;;;;4.78;1.65;;;7.70;81.60;;;-144.05;36.59;56948.66;5093376;28;20032;-77
2024/01/29 03:09:37;;;;;;;1.90;1.58;;;7.30;81.60;;;-144.05;36.75;56942.28;5093437;28;20047;-77
2024/01/29 03:12:04;;;;;;;3.45;1.50;;;8.70;82.40;;;-144.05;36.20;56950.78;5108206;28;20484;-78
2024/01/29 03:14:30;;;;;;;2.28;1.67;;;;;;;-144.05;36.65;56950.78;5093356;28;20032;-76
2024/01/29 03:16:56;;;;;;;3.33;1.40;;;14.30;86.10;;;-144.05;36.47;56938.03;5092855;28;20020;-76
2024/01/29 03:19:22;;;;;;;2.88;1.45;;;;;;;-144.05;36.34;56950.78;5093252;28;20039;-77
2024/01/29 03:21:49;;;;;;;2.92;1.48;;;;;;;-144.05;36.40;56961.41;5096058;28;20039;-76
2024/01/29 03:24:15;;;;;;;2.40;1.50;;;7.90;81.80;;;-144.05;36.61;56967.78;5095194;28;20051;-76
2024/01/29 03:26:41;;;;;;;2.45;1.50;;;14.40;87.30;;;-144.05;36.40;56972.03;5098556;28;20020;-76
2024/01/29 03:29:07;;;;;;;3.13;1.77;;;7.60;83.20;;;-144.05;36.70;56940.16;5092176;28;20084;-75
2024/01/29 03:31:32;;;;;;;2.28;1.48;;;7.70;83.50;;;-144.05;36.62;56933.78;5093691;28;20030;-77
2024/01/29 03:33:58;;;;;;;4.18;1.60;;;8.60;83.80;;;-144.05;36.51;56957.16;5093582;28;20469;-78
2024/01/29 03:36:24;;;;;;;3.70;1.60;;;7.70;83.50;;;-144.05;36.39;56933.78;5095012;28;20039;-76
2024/01/29 03:38:50;;;;;;;2.83;1.33;;;8.40;84.40;;;-144.05;36.52;56946.53;5105531;28;20106;-76
2024/01/29 03:41:17;;;;;;;2.72;1.70;;;14.00;87.90;;;-144.05;37.01;56957.16;5096659;28;20036;-76
2024/01/29 03:43:43;;;;;;;3.08;1.40;;;;;;;-144.05;37.15;56927.41;5105478;28;20058;-78
2024/01/29 03:46:09;;;;;;;3.88;1.70;;;;;;;-144.05;37.04;56948.66;5097170;28;20439;-76
2024/01/29 03:48:35;;;;;;;3.55;1.50;;;7.60;84.60;;;-144.05;37.27;56942.28;5098132;28;20107;-77
2024/01/29 03:51:01;;;;;;;3.85;1.63;;;7.10;83.90;;;-144.05;37.25;56942.28;5098073;28;20012;-78
2024/01/29 03:53:27;;;;;;;3.08;1.30;;;7.30;85.00;;;-144.05;37.11;56929.53;5097183;28;20039;-76
2024/01/29 03:55:54;;;;;;;2.05;1.52;;;11.20;87.60;;;-144.05;37.19;56948.66;5096822;28;20027;-76
2024/01/29 03:58:20;;;;;;;2.38;1.42;;;10.90;88.00;;;-144.05;37.28;56957.16;5108337;28;20031;-77
2024/01/29 04:00:46;;;;;;;4.07;1.58;;;13.80;87.90;;;-144.05;37.47;56923.19;5100583;27;20028;-76
2024/01/29 04:03:13;;;;;;;2.53;1.65;;;;;;;-144.05;37.68;56914.69;5097028;28;20199;-77
2024/01/29 04:05:38;;;;;;;2.22;1.55;;;10.70;88.70;;;-144.05;37.84;56955.03;5096249;28;20054;-76
2024/01/29 04:08:05;;;;;;;4.72;2.00;;;10.70;88.70;;;-144.05;37.75;56967.78;5096390;28;20020;-77
2024/01/29 04:10:32;;;;;;;2.25;1.50;;;;;;;-144.05;37.72;56976.28;5104569;28;20024;-78
2024/01/29 04:12:57;;;;;;;4.03;1.88;;;11.10;89.10;;;-144.05;38.13;56950.78;5096224;28;20491;-77
2024/01/29 04:15:24;;;;;;;5.45;2.30;;;;;;;-144.05;38.19;56978.41;5096308;28;20089;-76
2024/01/29 04:17:49;;;;;;;2.75;1.70;;;7.10;87.40;;;-144.05;38.41;56959.28;5098727;28;20020;-78
2024/01/29 04:20:16;;;;;;;3.03;1.50;;;;;;;-144.05;38.52;56959.28;5101037;28;20062;-76
2024/01/29 04:22:42;;;;;;;1.73;1.55;;;7.60;87.50;;;-144.05;38.46;56942.28;5096627;28;20151;-77
2024/01/29 04:25:08;;;;;;;3.40;1.85;;;6.80;87.10;;;-144.05;38.60;56925.28;5095717;28;20063;-78
2024/01/29 04:27:34;;;;;;;3.35;1.73;;;7.90;88.00;;;-144.05;38.49;56942.28;5097561;28;20036;-77
2024/01/29 04:30:02;;;;;;;3.35;1.77;;;14.10;90.60;;;-144.05;38.64;56935.91;5111149;28;20023;-77
2024/01/29 04:32:29;;;;;;;4.30;1.70;;;;;;;-144.05;38.33;56935.91;5115860;28;20164;-77
2024/01/29 04:34:54;;;;;;;2.85;2.05;;;7.30;88.70;;;-144.05;38.77;56963.53;5096331;28;20027;-77
2024/01/29 04:37:20;;;;;;;3.95;1.83;;;7.60;89.20;;;-144.05;39.14;56914.69;5097859;28;20028;-77
2024/01/29 04:39:46;;;;;;;3.22;1.50;;;8.10;90.10;;;-144.05;39.69;56942.28;5096519;28;20039;-78
2024/01/29 04:42:12;;;;;;;2.72;1.50;;;7.70;90.00;;;-144.05;39.44;56946.53;5096686;28;20021;-78
2024/01/29 04:44:38;;;;;;;4.75;2.10;;;8.20;90.10;;;-144.05;39.55;56946.53;5096201;28;20082;-78
2024/01/29 04:47:06;;;;;;;2.92;1.80;;;8.20;90.20;;;-144.05;40.03;56942.28;5096486;28;20439;-78
2024/01/29 04:49:32;;;;;;;5.00;1.83;;;7.20;90.20;;;-144.05;39.72;56969.91;5097053;28;20505;-78
2024/01/29 04:51:58;;;;;;;2.90;1.80;;;10.70;91.30;;;-144.05;39.99;56959.28;5095827;28;20107;-78
2024/01/29 04:54:23;;;;;;;3.08;1.75;;;7.20;90.50;;;-144.05;40.24;56959.28;5098923;28;20034;-77
2024/01/29 04:56:49;;;;;;;3.42;1.60;;;;;;;-144.05;40.19;56952.91;5100968;28;20028;-78
2024/01/29 04:59:15;;;;;;;3.90;1.80;;;7.90;91.20;;;-144.05;40.48;56957.16;5100390;28;20051;-77
2024/01/29 05:01:42;;;;;;;4.30;1.95;;;;;;;-144.05;40.71;56950.78;5098445;28;20468;-78
2024/01/29 05:04:08;;;;;;;3.22;1.80;;;7.20;90.80;;;-144.05;40.61;56935.91;5098307;28;20484;-76
2024/01/29 05:06:33;;;;;;;2.38;1.55;;;9.00;92.30;;;-144.05;40.51;56938.03;5104938;28;20042;-75
2024/01/29 05:09:00;;;;;;;6.40;2.15;;;;;;;-144.05;40.88;56944.41;5103332;28;20400;-77
2024/01/29 05:11:30;;;;;;;2.28;1.52;;;7.70;91.70;;;-144.05;40.78;56961.41;5099211;28;20039;-74
2024/01/29 05:13:55;;;;;;;2.65;2.03;;;7.00;92.30;;;-144.05;40.89;56963.53;5102785;28;20496;-77
2024/01/29 05:16:22;;;;;;;2.63;1.70;;;6.90;92.50;;;-144.05;40.99;56942.28;5106876;28;20055;-76
2024/01/29 05:18:49;;;;;;;4.75;1.98;;;;;;;-144.05;41.52;56969.91;5096262;28;20024;-77
2024/01/29 05:21:15;;;;;;;4.25;2.42;;;6.60;92.90;;;-144.05;41.18;56959.28;5096409;28;20282;-76
2024/01/29 05:23:41;;;;;;;4.00;2.10;;;7.20;93.60;;;-144.05;41.81;56948.66;5098869;28;20028;-77
2024/01/29 05:26:07;;;;;;;5.03;2.40;;;8.90;94.20;;;-144.05;41.84;56980.53;5094021;28;20431;-78
2024/01/29 05:28:33;;;;;;;3.60;1.83;;;;;;;-144.05;42.34;56963.53;5093188;28;20081;-77
2024/01/29 05:30:59;;;;;;;3.65;2.13;;;7.00;94.50;;;-144.05;42.09;56959.28;5094810;28;20081;-78
2024/01/29 05:33:24;;;;;;;3.53;1.90;;;7.90;94.90;;;-144.05;42.44;56950.78;5094767;28;20392;-76
2024/01/29 05:35:50;;;;;;;3.17;2.00;;;7.90;94.80;;;-144.05;42.32;56965.66;5092691;28;20047;-76
2024/01/29 05:38:16;;;;;;;3.72;2.00;;;10.90;95.40;;;-144.05;42.22;56946.53;5094190;28;20028;-76
2024/01/29 05:40:42;;;;;;;2.97;2.17;;;7.40;94.30;;;-144.05;42.10;56948.66;5094580;28;20032;-76
2024/01/29 05:43:08;;;;;;;3.28;1.88;;;;;;;-144.05;42.10;56963.53;5093178;28;20114;-76
2024/01/29 05:45:34;;;;;;;7.57;2.20;;;10.80;94.70;;;-144.05;42.22;56967.78;5094116;28;20032;-76
2024/01/29 05:48:03;;;;;;;4.47;2.33;;;8.10;94.20;;;-144.05;42.21;56957.16;5093360;28;20024;-77
2024/01/29 05:50:29;;;;;;;2.67;1.90;;;;;;;-144.05;42.36;56950.78;5094040;28;20043;-76
2024/01/29 05:52:56;;;;;;;4.07;2.00;;;;;;;-144.05;42.27;56967.78;5098940;28;20107;-77
2024/01/29 05:55:21;;;;;;;3.67;2.08;;;7.50;95.40;;;-144.05;42.11;56935.91;5096112;28;20028;-77
2024/01/29 05:57:49;;;;;;;5.97;2.45;;;;;;;-144.05;42.39;56976.28;5099131;28;20089;-75
2024/01/29 06:00:16;;;;;;;3.00;1.98;;;7.20;96.00;;;-144.05;42.84;56969.91;5094090;28;20039;-76
2024/01/29 06:02:46;;;;;;;4.05;2.30;;;7.00;96.20;;;-144.05;42.76;56938.03;5093912;28;20020;-76
2024/01/29 06:05:12;;;;;;;5.57;2.38;;;8.30;97.20;;;-144.05;43.20;56969.91;5093597;28;20526;-76
2024/01/29 06:07:40;;;;;;;3.45;2.00;;;8.20;96.50;;;-144.05;42.89;56959.28;5094964;28;20225;-75
2024/01/29 06:10:09;;;;;;;4.68;2.10;;;7.60;97.10;;;-144.05;43.68;56925.28;5094024;28;20028;-76
2024/01/29 06:12:35;;;;;;;4.47;2.30;;;7.60;97.10;;;-144.05;42.98;56967.78;5093566;28;20088;-77
2024/01/29 06:15:01;;;;;;;3.38;2.20;;;7.40;97.60;;;-144.05;42.80;56940.16;5092416;28;20481;-76
2024/01/29 06:17:30;;;;;;;3.60;2.00;;;7.20;97.60;;;-144.05;43.10;56946.53;5097414;28;20040;-76
2024/01/29 06:19:56;;;;;;;3.45;2.15;;;7.80;97.80;;;-144.05;43.20;56980.53;5097488;28;20262;-76
2024/01/29 06:22:22;;;;;;;3.03;1.77;;;7.40;98.00;;;-144.05;42.87;56978.41;5096976;28;20093;-79
2024/01/29 06:24:48;;;;;;;4.40;2.33;;;8.10;98.40;;;-144.05;43.05;56948.66;5101503;28;20527;-75
2024/01/29 06:27:14;;;;;;;3.72;2.00;;;7.30;98.40;;;-144.05;43.16;56972.03;5100370;28;20374;-78
2024/01/29 06:29:40;;;;;;;6.75;2.40;;;7.30;99.00;;;-144.05;43.19;56955.03;5096793;28;20036;-76
2024/01/29 06:32:06;;;;;;;4.55;2.58;;;;;;;-144.05;43.72;56944.41;5096460;28;20020;-75
2024/01/29 06:34:34;;;;;;;2.55;1.90;;;7.70;99.90;;;-144.05;43.60;56942.28;5100692;28;20169;-76
2024/01/29 06:37:00;;;;;;;5.63;2.47;;;;;;;-144.05;43.75;56965.66;5096334;28;20047;-78
2024/01/29 06:39:26;;;;;;;6.18;2.15;;;7.70;99.50;;;-144.05;43.86;56952.91;5094100;28;20051;-77
2024/01/29 06:41:51;;;;;;;3.78;2.28;;;7.90;99.90;;;-144.05;44.17;56963.53;5097057;28;20016;-75
2024/01/29 06:44:18;;;;;;;5.88;2.45;;;;;;;-144.05;44.11;56938.03;5095796;28;20028;-77
2024/01/29 06:46:44;;;;;;;3.92;2.20;;;7.20;99.40;;;-144.05;44.04;56961.41;5097906;28;20038;-76
2024/01/29 06:49:28;;;;;;;6.03;2.20;;;8.20;99.90;;;-144.05;44.34;56929.53;5097873;28;20031;-77
2024/01/29 06:51:54;;;;;;;3.28;2.03;;;7.10;99.80;;;-144.05;44.08;56946.53;5096340;28;20032;-78
2024/01/29 06:54:20;;;;;;;3.33;2.35;;;7.10;99.90;;;-144.05;44.19;56927.41;5104753;28;20028;-77
2024/01/29 06:56:46;;;;;;;6.43;3.22;;;7.20;99.90;;;-144.05;44.67;56944.41;5099864;28;20036;-77
2024/01/29 06:59:14;;;;;;;7.90;2.58;;;8.00;99.90;;;-144.05;44.63;56976.28;5112760;28;20053;-77
2024/01/29 07:01:41;;;;;;;5.50;2.90;;;7.70;99.90;;;-144.05;45.11;56952.91;5105417;28;20030;-78
2024/01/29 07:04:07;;;;;;;5.68;2.92;;;7.00;99.90;;;-144.05;44.86;56980.53;5100532;28;20034;-77
2024/01/29 07:06:33;;;;;;;6.50;3.75;;;6.70;99.90;;;-144.05;45.00;56967.78;5097135;28;20032;-76
2024/01/29 07:08:59;;;;;;;4.32;2.70;;;;;;;-144.05;44.99;56963.53;5103392;28;20016;-78
2024/01/29 07:11:25;;;;;;;3.97;2.40;;;6.60;99.90;;;-144.05;45.63;56955.03;5097255;28;20481;-77
2024/01/29 07:13:51;;;;;;;7.03;2.70;;;4.40;99.90;;;-144.05;45.32;56950.78;5102927;28;20021;-75
2024/01/29 07:16:17;;;;;;;7.15;3.25;;;7.80;99.90;;;-144.05;45.49;56948.66;5099198;28;20023;-76
2024/01/29 07:18:44;;;;;;;4.88;3.05;;;6.90;99.90;;;-144.05;45.61;56946.53;5108798;28;20016;-76
2024/01/29 07:21:10;;;;;;;4.47;2.88;;;6.70;99.90;;;-144.05;45.80;56961.41;5113723;28;20081;-76
2024/01/29 07:23:36;;;;;;;8.18;3.10;;;7.90;99.90;;;-144.05;45.87;56923.19;5102928;28;20071;-75
2024/01/29 07:26:02;;;;;;;6.03;2.95;;;7.80;99.90;;;-144.05;46.35;56921.06;5103865;28;20458;-77
2024/01/29 07:28:28;;;;;;;5.80;3.03;;;;;;;-144.05;46.30;56978.41;5101865;28;20028;-77
2024/01/29 07:30:55;;;;;;;4.80;2.88;;;7.30;99.90;;;-144.05;46.96;56952.91;5101229;28;20481;-77
2024/01/29 07:33:21;;;;;;;6.07;2.80;;;7.10;99.90;;;-144.05;46.59;56931.66;5103507;28;20024;-76
2024/01/29 07:35:48;;;;;;;6.28;3.33;;;7.90;99.90;;;-144.05;46.64;56948.66;5105761;28;20028;-75
2024/01/29 07:38:14;;;;;;;5.10;2.72;;;7.30;99.90;;;-144.05;46.80;56952.91;5100944;28;20021;-76
2024/01/29 07:40:41;;;;;;;4.80;2.50;;;8.50;99.90;;;-144.05;46.93;56935.91;5102580;28;20031;-76
2024/01/29 07:43:07;;;;;;;5.63;2.60;;;8.50;99.90;;;-144.05;46.40;56950.78;5110753;27;20084;-76
2024/01/29 07:45:34;;;;;;;5.88;2.85;;;7.90;99.90;;;-144.05;46.40;56935.91;5102372;28;20036;-76
2024/01/29 07:48:00;;;;;;;7.05;2.55;;;4.50;99.90;;;-144.05;45.71;56963.53;5107462;28;20024;-78
2024/01/29 07:50:26;;;;;;;5.03;3.08;;;7.00;99.90;;;-144.05;45.40;56908.31;5102365;28;20039;-76
2024/01/29 07:52:52;;;;;;;4.75;2.60;;;6.40;99.90;;;-144.05;45.63;56942.28;5110437;28;20032;-76
2024/01/29 07:55:19;;;;;;;6.20;2.40;;;;;;;-144.05;45.85;56938.03;5113913;28;20061;-75
2024/01/29 07:57:45;;;;;;;6.18;2.80;;;8.10;99.90;;;-144.05;46.27;56916.81;5108685;28;20107;-76
2024/01/29 08:00:13;;;;;;;7.43;2.83;;;4.20;99.90;;;-144.05;46.26;56955.03;5104444;28;20071;-76
2024/01/29 08:02:39;;;;;;;4.70;3.22;;;7.90;99.90;;;-144.05;46.49;56955.03;5105938;28;20028;-75
2024/01/29 08:05:05;;;;;;;7.03;2.72;;;8.00;99.90;;;-144.05;46.06;56948.66;5103395;28;20104;-75
2024/01/29 08:07:31;;;;;;;6.63;3.03;;;7.10;99.90;;;-144.05;46.28;56950.78;5103620;28;20024;-75
2024/01/29 08:10:00;;;;;;;5.90;3.50;;;7.10;99.90;;;-144.05;46.00;56967.78;5112588;28;20107;-75
2024/01/29 08:12:27;;;;;;;4.50;2.80;;;8.70;99.90;;;-144.05;45.51;56942.28;5103532;28;20449;-76
2024/01/29 08:14:53;;;;;;;3.95;2.55;;;7.10;99.90;;;-144.05;45.02;56931.66;5102145;28;20039;-77
2024/01/29 08:17:19;;;;;;;4.15;2.90;;;7.60;99.90;;;-144.05;44.74;56918.94;5109055;28;20481;-75
2024/01/29 08:19:45;;;;;;;6.95;3.08;;;7.60;99.90;;;-144.05;44.08;56959.28;5102459;28;20073;-77
2024/01/29 08:22:11;;;;;;;4.55;2.65;;;;;;;-144.05;43.70;56942.28;5104129;28;20086;-79
2024/01/29 08:24:39;;;;;;;5.72;2.67;;;10.60;99.90;;;-144.05;43.50;56940.16;5100742;28;20050;-77
2024/01/29 08:27:05;;;;;;;5.68;2.60;;;11.00;99.90;;;-144.05;43.22;56914.69;5107304;28;20020;-75
2024/01/29 08:29:31;;;;;;;4.93;2.85;;;8.60;99.90;;;-144.05;42.51;56950.78;5101751;28;20020;-75
2024/01/29 08:31:58;;;;;;;9.32;3.22;;;;;;;-144.05;42.51;56925.28;5107484;28;20032;-75
2024/01/29 08:34:25;;;;;;;5.18;2.75;;;8.30;99.90;;;-144.05;42.67;56908.31;5104294;28;20035;-75
2024/01/29 08:36:51;;;;;;;6.07;3.45;;;;;;;-144.05;42.29;56912.56;5115353;28;20556;-75
2024/01/29 08:39:18;;;;;;;6.20;2.97;;;;;;;-144.05;43.12;56916.81;5099900;28;20084;-75
2024/01/29 08:41:43;;;;;;;3.78;2.85;;;7.90;99.90;;;-144.05;43.08;56933.78;5114357;28;20059;-76
2024/01/29 08:44:10;;;;;;;6.25;2.60;;;10.60;99.90;;;-144.05;43.54;56929.53;5106079;28;20073;-75
2024/01/29 08:46:36;;;;;;;6.35;2.78;;;10.80;99.90;;;-144.05;43.40;56925.28;5108336;28;20032;-77
2024/01/29 08:49:03;;;;;;;4.38;2.63;;;9.30;99.90;;;-144.05;43.30;56946.53;5103922;28;20038;-76
2024/01/29 08:51:29;;;;;;;4.70;2.90;;;8.20;99.90;;;-144.05;43.31;56904.06;5112167;28;20111;-77
2024/01/29 08:53:56;;;;;;;8.85;3.33;;;11.10;99.90;;;-144.05;43.05;56925.28;5101994;28;20043;-75
2024/01/29 08:56:22;;;;;;;8.05;2.97;;;11.30;99.90;;;-144.05;42.31;56931.66;5107980;28;20396;-74
2024/01/29 08:58:47;;;;;;;9.95;3.63;;;8.30;99.90;;;-144.05;42.56;56923.19;5101436;28;20024;-76
2024/01/29 09:01:13;;;;;;;5.32;2.67;;;8.50;99.90;;;-144.05;42.07;56916.81;5101446;28;20032;-75
2024/01/29 09:03:39;;;;;;;3.60;2.25;;;;;;;-144.05;41.46;56910.44;5101837;28;20417;-77
2024/01/29 09:06:05;;;;;;;7.30;3.00;;;8.50;99.90;;;-144.05;42.02;56931.66;5100169;28;20121;-76
2024/01/29 09:08:31;;;;;;;3.50;2.28;;;8.20;99.90;;;-144.05;41.81;56914.69;5102330;28;20107;-77
2024/01/29 09:10:57;;;;;;;8.10;3.45;;;7.80;99.90;;;-144.05;42.70;56938.03;5106839;28;20048;-75
2024/01/29 09:13:23;;;;;;;4.95;2.72;;;8.60;99.90;;;-144.05;42.69;56908.31;5101884;28;20038;-78
2024/01/29 09:15:49;;;;;;;4.78;2.78;;;13.90;99.90;;;-144.05;42.85;56908.31;5099969;28;20097;-77
2024/01/29 09:18:15;;;;;;;6.05;3.15;;;8.20;99.90;;;-144.05;42.50;56908.31;5102528;28;20026;-77
2024/01/29 09:20:40;;;;;;;5.25;2.60;;;8.50;99.90;;;-144.05;41.70;56938.03;5110852;28;20439;-78
2024/01/29 09:23:07;;;;;;;6.25;2.90;;;;;;;-144.05;41.62;56929.53;5107750;28;20028;-77
2024/01/29 09:25:33;;;;;;;6.63;2.83;;;8.30;99.90;;;-144.05;41.62;56938.03;5101427;28;20024;-77
2024/01/29 09:27:59;;;;;;;4.95;2.60;;;;;;;-144.05;41.07;56893.44;5103012;28;20049;-79
2024/01/29 09:30:25;;;;;;;6.10;2.67;;;14.50;99.90;;;-144.05;41.40;56916.81;5101246;28;20052;-78
2024/01/29 09:32:51;;;;;;;9.50;3.30;;;;;;;-144.05;41.03;56921.06;5100615;28;20414;-76
2024/01/29 09:35:17;;;;;;;5.53;2.92;;;9.00;99.90;;;-144.05;41.35;56929.53;5103814;28;20042;-77
2024/01/29 09:37:43;;;;;;;6.85;2.90;;;14.70;99.90;;;-144.05;41.60;56899.81;5108158;28;20044;-78
2024/01/29 09:40:15;;;;;;;4.63;3.00;;;14.40;99.90;;;-144.05;40.89;56904.06;5099625;28;20024;-78
2024/01/29 09:42:49;;;;;;;3.85;2.65;;;14.30;99.90;;;-144.05;41.36;56904.06;5100244;28;20039;-76
2024/01/29 09:45:24;;;;;;;7.00;2.88;;;14.60;99.90;;;-144.05;40.80;56908.31;5099067;28;20051;-78
2024/01/29 09:47:54;;;;;;;7.50;2.95;;;14.70;99.90;;;-144.05;41.01;56921.06;5102038;28;20119;-78
2024/01/29 09:50:24;;;;;;;4.40;2.92;;;14.50;99.90;;;-144.05;40.78;56904.06;5106939;28;20092;-80
2024/01/29 09:52:55;;;;;;;5.68;3.17;;;14.60;99.90;;;-144.05;40.75;56891.31;5105705;28;20035;-78
2024/01/29 09:55:26;;;;;;;5.00;3.25;;;14.40;99.90;;;-144.05;41.46;56893.44;5112885;28;20024;-80
2024/01/29 09:57:52;;;;;;;5.50;3.03;;;14.20;99.90;;;-144.05;41.38;56925.28;5113263;28;20056;-78
2024/01/29 10:00:20;;;;;;;7.10;3.13;;;9.10;99.90;;;-144.05;41.07;56897.69;5106388;28;20036;-80
2024/01/29 10:02:53;;;;;;;6.82;3.00;;;11.50;99.90;;;-144.05;40.98;56908.31;5101011;28;20024;-80
2024/01/29 10:05:18;;;;;;;7.05;3.58;;;8.60;99.90;;;-144.05;41.40;56914.69;5100200;28;20477;-80
2024/01/29 10:07:45;;;;;;;5.93;3.33;;;9.10;99.90;;;-144.05;41.01;56906.19;5106772;28;20035;-78
2024/01/29 10:10:11;;;;;;;7.40;2.92;;;14.60;99.90;;;-144.05;41.00;56901.94;5117697;28;20035;-78
2024/01/29 10:12:37;;;;;;;5.40;2.70;;;14.60;99.90;;;-144.05;40.67;56889.19;5102398;28;20104;-78
2024/01/29 10:15:05;;;;;;;5.03;2.78;;;14.30;99.90;;;-144.05;40.54;56912.56;5110308;28;20031;-78
2024/01/29 10:17:33;;;;;;;7.82;3.08;;;11.90;99.90;;;-144.05;41.03;56884.94;5105181;28;20073;-79
2024/01/29 10:19:59;;;;;;;4.35;2.92;;;14.40;99.90;;;-144.05;40.64;56914.69;5098717;28;20043;-78